9Z3 weather

Kodiak /Lilly Lake/ Seaplane Base
Kodiak, Alaska, United States

Public forecast

Using degrees Fahrenheit for public forecast. Weather courtesy of forecast.io.

METAR (pilot weather report)

Closest report is Kodiak Airport, 4.8 nm (8.8 km) SW. Retrieved 2019/07/16 14:53 UTC (1 hour ago):

PADQ 161453Z 00000KT 8SM -RA FEW027 OVC060 12/10 A2967 RMK AO2 RAB13 SLP048 P0001 60001 T01220100 56004 $

TAF (pilot weather forecast)

Closest forecast is Kodiak Airport, 4.8 nm (8.8 km) SW. Retrieved 2019/07/16 12:30 UTC (4 hours ago):

TAF PADQ 161128Z 1612/1712 33005KT P6SM -SHRA BKN035 TEMPO 1612/1616 3SM -SHRA BR BKN015 BKN025 FM170600 32010KT P6SM VCSH BKN050